createdAt,value
2023-04-15T00:01:12.100Z,43.25
2023-04-15T00:03:39.177Z,41.70
2023-04-15T00:06:06.350Z,43.67
2023-04-15T00:08:33.284Z,40.95
2023-04-15T00:11:05.814Z,41.15
2023-04-15T00:13:35.447Z,45.33
2023-04-15T00:16:02.333Z,44.78
2023-04-15T00:18:32.246Z,43.08
2023-04-15T00:20:59.694Z,43.78
2023-04-15T00:23:26.801Z,42.70
2023-04-15T00:25:53.449Z,41.40
2023-04-15T00:28:23.054Z,49.28
2023-04-15T00:30:51.350Z,42.17
2023-04-15T00:33:19.462Z,44.00
2023-04-15T00:35:46.108Z,45.03
2023-04-15T00:38:13.274Z,49.25
2023-04-15T00:40:40.036Z,48.85
2023-04-15T00:43:07.170Z,39.55
2023-04-15T00:45:34.326Z,47.63
2023-04-15T00:48:01.134Z,46.95
2023-04-15T00:50:27.942Z,46.20
2023-04-15T00:52:54.547Z,45.47
2023-04-15T00:55:21.318Z,48.17
2023-04-15T00:57:48.676Z,51.63
2023-04-15T01:00:18.936Z,49.17
2023-04-15T01:02:45.898Z,57.30
2023-04-15T01:05:13.198Z,56.97
2023-04-15T01:07:39.836Z,53.80
2023-04-15T01:10:07.151Z,52.55
2023-04-15T01:12:34.403Z,55.90
2023-04-15T01:15:02.357Z,55.03
2023-04-15T01:17:29.528Z,55.80
2023-04-15T01:19:58.035Z,57.05
2023-04-15T01:22:26.965Z,57.50
2023-04-15T01:25:12.747Z,57.90
2023-04-15T01:27:42.323Z,60.03
2023-04-15T01:30:09.628Z,57.28
2023-04-15T01:32:37.128Z,55.95
2023-04-15T01:35:04.119Z,59.42
2023-04-15T01:37:31.120Z,60.60
2023-04-15T01:39:59.863Z,62.03
2023-04-15T01:42:27.879Z,64.72
2023-04-15T01:44:54.872Z,61.88
2023-04-15T01:47:21.850Z,61.65
2023-04-15T01:49:48.664Z,59.90
2023-04-15T01:52:17.874Z,68.57
2023-04-15T01:54:44.705Z,62.83
2023-04-15T01:57:11.603Z,67.80
2023-04-15T01:59:38.771Z,68.55
2023-04-15T02:02:05.579Z,71.93
2023-04-15T02:04:34.009Z,75.80
2023-04-15T02:07:00.919Z,65.75
2023-04-15T02:09:32.152Z,74.10
2023-04-15T02:11:58.950Z,72.15
2023-04-15T02:14:26.189Z,74.55
2023-04-15T02:16:53.236Z,69.85
2023-04-15T02:19:20.298Z,67.72
2023-04-15T02:21:46.911Z,73.97
2023-04-15T02:24:22.278Z,67.03
2023-04-15T02:26:49.314Z,68.38
2023-04-15T02:29:16.337Z,70.43
2023-04-15T02:31:43.851Z,74.43
2023-04-15T02:34:10.752Z,72.00
2023-04-15T02:36:38.300Z,74.70
2023-04-15T02:39:05.176Z,72.90
2023-04-15T02:41:32.007Z,72.32
2023-04-15T02:43:58.714Z,82.22
2023-04-15T02:46:25.760Z,71.07
2023-04-15T02:48:53.803Z,77.97
2023-04-15T02:51:22.937Z,70.47
2023-04-15T02:53:51.042Z,74.82
2023-04-15T02:56:19.565Z,77.68
2023-04-15T02:58:46.670Z,75.88
2023-04-15T03:01:19.231Z,75.78
2023-04-15T03:03:46.637Z,72.55
2023-04-15T03:06:13.742Z,75.65
2023-04-15T03:08:40.856Z,74.60
2023-04-15T03:11:08.805Z,72.45
2023-04-15T03:13:35.497Z,73.00
2023-04-15T03:16:02.382Z,76.53
2023-04-15T03:18:29.406Z,75.53
2023-04-15T03:20:56.123Z,77.38
2023-04-15T03:23:26.398Z,76.68
2023-04-15T03:25:55.919Z,79.32
2023-04-15T03:28:22.722Z,76.07
2023-04-15T03:30:49.842Z,82.53
2023-04-15T03:33:16.474Z,85.90
2023-04-15T03:35:43.161Z,76.70
2023-04-15T03:38:09.980Z,83.38
2023-04-15T03:40:36.871Z,79.35
2023-04-15T03:43:03.485Z,78.38
2023-04-15T03:45:30.334Z,79.32
2023-04-15T03:48:03.603Z,79.45
2023-04-15T03:50:38.081Z,78.40
2023-04-15T03:53:04.743Z,78.45
2023-04-15T03:55:31.738Z,81.53
2023-04-15T03:57:58.417Z,83.18
2023-04-15T04:00:25.796Z,77.78
2023-04-15T04:02:54.632Z,72.78
2023-04-15T04:05:21.305Z,76.00
2023-04-15T04:07:51.304Z,73.95
2023-04-15T04:10:21.613Z,73.88
2023-04-15T04:12:48.251Z,75.28
2023-04-15T04:15:15.043Z,73.43
2023-04-15T04:17:45.067Z,66.65
2023-04-15T04:20:12.595Z,77.97
2023-04-15T04:22:42.555Z,70.70
2023-04-15T04:25:13.135Z,72.00
2023-04-15T04:27:39.759Z,69.93
2023-04-15T04:30:07.381Z,69.00
2023-04-15T04:32:34.291Z,64.45
2023-04-15T04:35:01.039Z,73.72
2023-04-15T04:37:27.708Z,63.97
2023-04-15T04:39:54.450Z,57.17
2023-04-15T04:42:21.200Z,62.50
2023-04-15T04:44:47.962Z,58.40
2023-04-15T04:47:17.517Z,56.97
2023-04-15T04:49:44.339Z,58.55
2023-04-15T04:52:11.786Z,59.95
2023-04-15T04:54:38.550Z,53.90
2023-04-15T04:57:05.196Z,64.00
2023-04-15T04:59:31.808Z,61.47
2023-04-15T05:01:58.587Z,60.92
2023-04-15T05:04:25.422Z,58.95
2023-04-15T05:06:52.209Z,54.95
2023-04-15T05:09:19.319Z,55.83
2023-04-15T05:11:46.175Z,57.75
2023-04-15T05:14:12.854Z,49.17
2023-04-15T05:16:39.519Z,51.70
2023-04-15T05:19:06.294Z,54.40
2023-04-15T05:21:33.009Z,52.65
2023-04-15T05:23:59.710Z,46.38
2023-04-15T05:26:27.591Z,52.50
2023-04-15T05:28:54.378Z,49.85
2023-04-15T05:31:21.332Z,49.58
2023-04-15T05:33:48.202Z,52.28
2023-04-15T05:36:16.373Z,52.28
2023-04-15T05:38:42.978Z,49.85
2023-04-15T05:41:09.634Z,48.95
2023-04-15T05:43:36.342Z,47.03
2023-04-15T05:46:02.995Z,46.00
2023-04-15T05:48:29.741Z,37.75
2023-04-15T05:50:56.612Z,42.17
2023-04-15T05:53:23.341Z,38.55
2023-04-15T05:55:50.034Z,41.63
2023-04-15T05:58:16.664Z,41.20
2023-04-15T06:00:43.957Z,39.78
2023-04-15T06:03:11.901Z,39.58
2023-04-15T06:05:41.759Z,40.38
2023-04-15T06:08:09.880Z,30.63
2023-04-15T06:10:37.027Z,38.13
2023-04-15T06:13:04.941Z,29.58
2023-04-15T06:15:32.114Z,32.53
2023-04-15T06:17:58.891Z,27.67
2023-04-15T06:20:28.743Z,26.67
2023-04-15T06:22:55.756Z,36.72
2023-04-15T06:25:24.075Z,31.05
2023-04-15T06:27:53.569Z,28.90
2023-04-15T06:30:22.895Z,25.65
2023-04-15T06:32:50.758Z,27.10
2023-04-15T06:35:20.722Z,33.85
2023-04-15T06:37:47.384Z,25.05
2023-04-15T06:40:14.313Z,22.75
2023-04-15T06:42:41.994Z,24.42
2023-04-15T06:45:09.596Z,24.85
2023-04-15T06:47:36.996Z,27.88
2023-04-15T06:50:04.197Z,27.98
2023-04-15T06:52:31.628Z,26.10
2023-04-15T06:54:59.625Z,22.30
2023-04-15T06:57:26.457Z,20.92
2023-04-15T06:59:54.673Z,24.90
2023-04-15T07:02:22.319Z,24.30
2023-04-15T07:04:49.113Z,23.95
2023-04-15T07:07:18.954Z,24.85
2023-04-15T07:09:45.665Z,20.05
2023-04-15T07:12:12.441Z,21.92
2023-04-15T07:14:39.163Z,20.70
2023-04-15T07:17:05.857Z,26.17
2023-04-15T07:19:32.570Z,19.83
2023-04-15T07:21:59.301Z,21.95
2023-04-15T07:24:27.207Z,25.50
2023-04-15T07:26:59.472Z,21.45
2023-04-15T07:29:27.565Z,19.33
2023-04-15T07:31:54.243Z,20.55
2023-04-15T07:34:21.266Z,23.42
2023-04-15T07:36:54.138Z,19.60
2023-04-15T07:39:21.028Z,19.10
2023-04-15T07:41:49.115Z,18.58
2023-04-15T07:44:15.803Z,21.58
2023-04-15T07:46:42.500Z,25.73
2023-04-15T07:49:09.387Z,18.40
2023-04-15T07:51:36.013Z,22.08
2023-04-15T07:54:03.302Z,19.67
2023-04-15T07:56:30.195Z,20.70
2023-04-15T07:58:57.028Z,21.40
2023-04-15T08:01:23.961Z,17.48
2023-04-15T08:03:51.139Z,21.33
2023-04-15T08:06:18.047Z,20.45
2023-04-15T08:08:50.358Z,23.10
2023-04-15T08:11:17.085Z,20.20
2023-04-15T08:13:44.145Z,28.65
2023-04-15T08:16:21.056Z,19.60
2023-04-15T08:18:49.321Z,22.15
2023-04-15T08:21:17.912Z,25.92
2023-04-15T08:23:46.265Z,22.80
2023-04-15T08:26:13.222Z,19.52
2023-04-15T08:28:43.658Z,23.75
2023-04-15T08:31:10.667Z,33.03
2023-04-15T08:33:37.373Z,21.95
2023-04-15T08:36:04.603Z,23.40
2023-04-15T08:38:31.354Z,19.25
2023-04-15T08:41:00.477Z,20.65
2023-04-15T08:43:35.063Z,22.60
2023-04-15T08:46:03.737Z,21.73
2023-04-15T08:48:33.327Z,21.75
2023-04-15T08:51:01.118Z,26.77
2023-04-15T08:53:35.436Z,20.13
2023-04-15T08:56:06.387Z,19.88
2023-04-15T08:58:36.148Z,23.67
2023-04-15T09:01:03.525Z,21.10
2023-04-15T09:03:30.921Z,22.00
2023-04-15T09:06:01.360Z,24.63
2023-04-15T09:08:28.170Z,24.08
2023-04-15T09:10:55.121Z,22.00
2023-04-15T09:13:25.134Z,24.02
2023-04-15T09:15:53.906Z,19.80
2023-04-15T09:18:31.486Z,21.52
2023-04-15T09:21:09.304Z,21.27
2023-04-15T09:23:36.536Z,21.08
2023-04-15T09:26:06.509Z,21.08
2023-04-15T09:28:33.596Z,21.55
2023-04-15T09:31:02.021Z,24.92
2023-04-15T09:33:30.444Z,19.50
2023-04-15T09:36:05.126Z,20.38
2023-04-15T09:38:32.691Z,19.25
2023-04-15T09:41:02.801Z,21.67
2023-04-15T09:43:39.697Z,18.30
2023-04-15T09:46:06.540Z,20.20
2023-04-15T09:48:33.794Z,22.40
2023-04-15T09:51:07.066Z,18.52
2023-04-15T09:53:41.703Z,20.92
2023-04-15T09:56:11.221Z,25.27
2023-04-15T09:58:39.170Z,22.27
2023-04-15T10:01:08.003Z,19.50
2023-04-15T10:03:37.823Z,19.75
2023-04-15T10:06:09.318Z,22.58
2023-04-15T10:08:36.573Z,21.58
2023-04-15T10:11:04.093Z,23.05
2023-04-15T10:13:37.666Z,21.25
2023-04-15T10:16:26.973Z,19.95
2023-04-15T10:18:58.423Z,20.60
2023-04-15T10:21:25.403Z,20.20
2023-04-15T10:24:00.819Z,19.33
2023-04-15T10:26:36.524Z,18.45
2023-04-15T10:29:03.881Z,20.00
2023-04-15T10:31:31.218Z,21.40
2023-04-15T10:33:59.776Z,16.60
2023-04-15T10:36:27.676Z,17.98
2023-04-15T10:38:54.613Z,21.13
2023-04-15T10:41:27.073Z,17.25
2023-04-15T10:44:01.500Z,19.70
2023-04-15T10:46:38.704Z,16.40
2023-04-15T10:49:19.901Z,22.38
2023-04-15T10:51:51.621Z,22.35
2023-04-15T10:54:24.181Z,16.30
2023-04-15T10:57:23.795Z,18.88
2023-04-15T11:00:11.335Z,18.52
2023-04-15T11:02:54.327Z,17.00
2023-04-15T11:05:24.074Z,16.90
2023-04-15T11:07:55.873Z,18.48
2023-04-15T11:10:33.087Z,17.05
2023-04-15T11:13:03.273Z,24.15
2023-04-15T11:15:41.818Z,16.92
2023-04-15T11:18:28.705Z,16.45
2023-04-15T11:21:00.119Z,19.15
2023-04-15T11:23:46.907Z,16.98
2023-04-15T11:26:14.282Z,14.50
2023-04-15T11:28:43.087Z,16.23
2023-04-15T11:31:12.345Z,16.77
2023-04-15T11:33:59.940Z,16.42
2023-04-15T11:36:28.935Z,14.63
2023-04-15T11:38:57.660Z,19.52
2023-04-15T11:41:24.819Z,16.38
2023-04-15T11:43:52.716Z,16.05
2023-04-15T11:46:34.745Z,17.05
2023-04-15T11:49:01.789Z,17.13
2023-04-15T11:51:33.268Z,18.65
2023-04-15T11:54:00.863Z,17.40
2023-04-15T11:56:27.746Z,17.15
2023-04-15T11:59:03.146Z,19.90
2023-04-15T12:01:39.516Z,16.67
2023-04-15T12:04:22.564Z,18.17
2023-04-15T12:06:54.213Z,16.25
2023-04-15T12:09:21.764Z,14.95
2023-04-15T12:11:50.358Z,15.80
2023-04-15T12:14:33.418Z,15.88
2023-04-15T12:17:05.068Z,17.83
2023-04-15T12:19:40.456Z,15.02
2023-04-15T12:22:14.020Z,17.75
2023-04-15T12:24:44.349Z,13.90
2023-04-15T12:27:12.443Z,13.35
2023-04-15T12:29:41.385Z,15.18
2023-04-15T12:32:12.170Z,13.95
2023-04-15T12:34:41.522Z,12.90
2023-04-15T12:37:09.913Z,13.48
2023-04-15T12:39:42.324Z,13.32
2023-04-15T12:42:09.524Z,11.02
2023-04-15T12:44:37.469Z,15.13
2023-04-15T12:47:05.042Z,13.57
2023-04-15T12:49:39.732Z,13.98
2023-04-15T12:52:07.510Z,11.23
2023-04-15T12:54:34.827Z,13.45
2023-04-15T12:57:05.557Z,12.07
2023-04-15T13:02:01.218Z,12.65
2023-04-15T13:04:30.942Z,12.45
2023-04-15T13:06:58.155Z,10.30
2023-04-15T13:09:25.131Z,10.52
2023-04-15T13:11:52.779Z,12.20
2023-04-15T13:14:19.849Z,12.50
2023-04-15T13:16:46.531Z,11.70
2023-04-15T13:19:13.203Z,13.48
2023-04-15T13:21:39.925Z,9.98
2023-04-15T13:24:07.460Z,11.13
2023-04-15T13:26:34.494Z,12.50
2023-04-15T13:29:01.451Z,10.35
2023-04-15T13:31:28.282Z,10.75
2023-04-15T13:33:54.984Z,10.35
2023-04-15T13:36:21.805Z,9.82
2023-04-15T13:38:50.994Z,9.75
2023-04-15T13:41:18.239Z,10.40
2023-04-15T13:43:44.840Z,8.68
2023-04-15T13:46:11.573Z,8.10
2023-04-15T13:48:38.227Z,12.93
2023-04-15T13:51:04.859Z,9.00
2023-04-15T13:53:39.197Z,10.98
2023-04-15T13:56:10.370Z,10.32
2023-04-15T13:58:38.110Z,11.05
2023-04-15T14:01:06.977Z,11.77
2023-04-15T14:03:36.249Z,10.48
2023-04-15T14:06:03.551Z,11.07
2023-04-15T14:08:30.250Z,13.70
2023-04-15T14:10:57.800Z,11.63
2023-04-15T14:13:24.592Z,9.88
2023-04-15T14:15:51.285Z,10.70
2023-04-15T14:18:17.946Z,10.82
2023-04-15T14:20:44.508Z,12.75
2023-04-15T14:23:11.100Z,13.07
2023-04-15T14:25:39.395Z,12.00
2023-04-15T14:28:06.255Z,11.40
2023-04-15T14:30:33.056Z,15.88
2023-04-15T14:32:59.874Z,12.05
2023-04-15T14:35:26.814Z,11.13
2023-04-15T14:37:54.326Z,13.88
2023-04-15T14:40:21.215Z,10.93
2023-04-15T14:42:48.112Z,10.90
2023-04-15T14:45:14.795Z,12.18
2023-04-15T14:47:41.567Z,11.30
2023-04-15T14:50:08.680Z,11.63
2023-04-15T14:52:38.818Z,12.43
2023-04-15T14:55:12.579Z,11.25
2023-04-15T14:57:40.951Z,13.70
2023-04-15T15:00:10.690Z,13.25
2023-04-15T15:02:40.433Z,10.77
2023-04-15T15:05:08.309Z,11.15
2023-04-15T15:07:37.197Z,12.60
2023-04-15T15:10:04.740Z,8.73
2023-04-15T15:12:31.379Z,13.02
2023-04-15T15:14:57.985Z,11.27
2023-04-15T15:17:24.728Z,9.98
2023-04-15T15:19:51.564Z,11.00
2023-04-15T15:22:20.194Z,12.02
2023-04-15T15:24:47.904Z,9.48
2023-04-15T15:27:14.763Z,11.90
2023-04-15T15:29:41.482Z,17.42
2023-04-15T15:32:08.191Z,10.65
2023-04-15T15:34:34.813Z,11.98
2023-04-15T15:37:01.441Z,13.82
2023-04-15T15:39:28.124Z,12.70
2023-04-15T15:41:55.049Z,13.30
2023-04-15T15:44:21.664Z,10.90
2023-04-15T15:46:48.430Z,12.27
2023-04-15T15:49:15.132Z,11.95
2023-04-15T15:51:41.752Z,12.02
2023-04-15T15:54:08.360Z,12.40
2023-04-15T15:56:35.156Z,13.40
2023-04-15T15:59:01.944Z,16.33
2023-04-15T16:01:28.732Z,13.30
2023-04-15T16:03:55.460Z,10.02
2023-04-15T16:06:22.224Z,15.90
2023-04-15T16:08:48.832Z,17.80
2023-04-15T16:11:15.667Z,106.00
2023-04-15T16:13:42.270Z,175.85
2023-04-15T16:16:09.012Z,23.30
2023-04-15T16:18:35.623Z,35.53
2023-04-15T16:21:02.322Z,13.65
2023-04-15T16:23:29.112Z,15.75
2023-04-15T16:25:55.900Z,62.08
2023-04-15T16:28:26.950Z,14.70
2023-04-15T16:30:54.698Z,14.00
2023-04-15T16:33:21.398Z,10.02
2023-04-15T16:35:48.067Z,9.73
2023-04-15T16:38:14.757Z,12.88
2023-04-15T16:40:41.339Z,10.38
2023-04-15T16:43:08.274Z,10.35
2023-04-15T16:45:35.040Z,9.43
2023-04-15T16:48:01.728Z,10.73
2023-04-15T16:50:28.530Z,12.63
2023-04-15T16:52:55.257Z,19.05
2023-04-15T16:55:21.983Z,18.00
2023-04-15T16:58:02.694Z,29.75
2023-04-15T17:00:31.693Z,14.35
2023-04-15T17:02:59.134Z,14.02
2023-04-15T17:05:27.729Z,36.83
2023-04-15T17:07:54.662Z,18.75
2023-04-15T17:10:21.320Z,27.10
2023-04-15T17:12:48.191Z,12.88
2023-04-15T17:15:14.896Z,36.22
2023-04-15T17:17:41.498Z,11.98
2023-04-15T17:20:08.371Z,11.18
2023-04-15T17:22:35.048Z,21.65
2023-04-15T17:25:01.903Z,24.85
2023-04-15T17:27:29.061Z,19.25
2023-04-15T17:29:56.251Z,24.73
2023-04-15T17:32:23.590Z,32.88
2023-04-15T17:34:51.421Z,13.48
2023-04-15T17:37:18.705Z,14.18
2023-04-15T17:39:45.806Z,16.15
2023-04-15T17:42:13.201Z,14.80
2023-04-15T17:44:39.952Z,15.65
2023-04-15T17:47:07.464Z,19.42
2023-04-15T17:49:34.359Z,15.45
2023-04-15T17:52:01.406Z,16.90
2023-04-15T17:54:28.127Z,16.48
2023-04-15T17:56:54.919Z,14.40
2023-04-15T17:59:21.676Z,12.73
2023-04-15T18:01:48.448Z,14.18
2023-04-15T18:04:15.902Z,17.40
2023-04-15T18:06:42.802Z,21.42
2023-04-15T18:09:09.378Z,17.38
2023-04-15T18:11:36.270Z,13.55
2023-04-15T18:14:04.472Z,17.38
2023-04-15T18:16:31.511Z,15.20
2023-04-15T18:18:58.424Z,13.63
2023-04-15T18:21:24.993Z,15.15
2023-04-15T18:23:51.574Z,12.93
2023-04-15T18:26:18.240Z,12.98
2023-04-15T18:28:45.000Z,14.98
2023-04-15T18:31:11.589Z,12.95
2023-04-15T18:33:39.183Z,18.70
2023-04-15T18:36:06.014Z,20.27
2023-04-15T18:38:32.667Z,22.52
2023-04-15T18:40:59.361Z,19.13
2023-04-15T18:43:26.052Z,20.58
2023-04-15T18:45:54.614Z,14.05
2023-04-15T18:48:21.307Z,13.88
2023-04-15T18:50:48.452Z,17.33
2023-04-15T18:53:19.130Z,13.82
2023-04-15T18:55:56.805Z,15.57
2023-04-15T18:59:23.011Z,15.43
2023-04-15T19:01:22.760Z,19.00
2023-04-15T19:03:53.528Z,22.08
2023-04-15T19:06:20.773Z,19.77
2023-04-15T19:08:47.440Z,20.15
2023-04-15T19:11:31.657Z,22.75
2023-04-15T19:13:58.233Z,17.23
2023-04-15T19:16:27.773Z,24.77
2023-04-15T19:18:56.390Z,19.75
2023-04-15T19:21:34.664Z,16.45
2023-04-15T19:24:01.548Z,15.45
2023-04-15T19:26:28.668Z,16.38
2023-04-15T19:29:09.248Z,20.23
2023-04-15T19:31:40.433Z,14.07
2023-04-15T19:34:10.356Z,14.80
2023-04-15T19:36:37.084Z,15.88
2023-04-15T19:39:04.262Z,15.68
2023-04-15T19:41:31.072Z,14.77
2023-04-15T19:43:57.898Z,13.48
2023-04-15T19:46:27.947Z,13.70
2023-04-15T19:48:55.559Z,11.65
2023-04-15T19:51:27.977Z,14.02
2023-04-15T19:53:56.995Z,16.80
2023-04-15T19:56:24.846Z,16.10
2023-04-15T19:58:54.031Z,14.93
2023-04-15T20:01:28.178Z,13.68
2023-04-15T20:03:59.824Z,13.65
2023-04-15T20:06:27.524Z,13.20
2023-04-15T20:08:59.050Z,15.38
2023-04-15T20:12:05.676Z,12.90
2023-04-15T20:14:17.845Z,13.75
2023-04-15T20:16:44.779Z,13.50
2023-04-15T20:19:13.334Z,13.65
2023-04-15T20:21:40.141Z,16.02
2023-04-15T20:24:07.254Z,16.40
2023-04-15T20:26:34.039Z,17.45
2023-04-15T20:29:02.478Z,18.35
2023-04-15T20:31:29.672Z,18.75
2023-04-15T20:36:38.088Z,22.93
2023-04-15T20:39:05.050Z,22.80
2023-04-15T20:41:31.999Z,23.90
2023-04-15T20:43:58.810Z,25.55
2023-04-15T20:46:27.824Z,25.38
2023-04-15T20:48:54.479Z,26.02
2023-04-15T20:51:21.281Z,26.15
2023-04-15T20:53:48.203Z,24.92
2023-04-15T20:56:15.236Z,26.25
2023-04-15T20:58:42.138Z,26.98
2023-04-15T21:01:08.807Z,25.33
2023-04-15T21:03:35.954Z,30.15
2023-04-15T21:06:10.750Z,25.05
2023-04-15T21:08:37.427Z,25.08
2023-04-15T21:11:04.238Z,25.17
2023-04-15T21:13:31.220Z,31.38
2023-04-15T21:16:01.205Z,28.25
2023-04-15T21:18:30.322Z,27.95
2023-04-15T21:21:01.587Z,27.08
2023-04-15T21:23:34.079Z,29.03
2023-04-15T21:26:06.947Z,28.17
2023-04-15T21:28:33.772Z,27.92
2023-04-15T21:31:02.892Z,29.50
2023-04-15T21:33:33.586Z,26.70
2023-04-15T21:36:18.070Z,26.17
2023-04-15T21:39:03.466Z,30.48
2023-04-15T21:41:33.459Z,28.15
2023-04-15T21:44:05.596Z,29.10
2023-04-15T21:46:47.027Z,28.38
2023-04-15T21:49:21.870Z,27.30
2023-04-15T21:51:56.130Z,28.17
2023-04-15T21:54:27.295Z,28.73
2023-04-15T21:57:01.154Z,28.63
2023-04-15T21:59:32.997Z,28.70
2023-04-15T22:02:14.929Z,29.95
2023-04-15T22:04:47.789Z,31.42
2023-04-15T22:07:22.056Z,27.30
2023-04-15T22:09:55.206Z,30.27
2023-04-15T22:12:21.889Z,32.78
2023-04-15T22:14:48.857Z,29.20
2023-04-15T22:17:15.828Z,29.77
2023-04-15T22:19:57.007Z,26.75
2023-04-15T22:22:43.533Z,28.08
2023-04-15T22:25:14.122Z,30.65
2023-04-15T22:27:43.542Z,30.05
2023-04-15T22:30:11.052Z,30.35
2023-04-15T22:32:38.589Z,27.90
2023-04-15T22:35:06.677Z,32.53
2023-04-15T22:37:40.398Z,30.75
2023-04-15T22:40:07.656Z,30.73
2023-04-15T22:42:34.492Z,30.35
2023-04-15T22:45:01.293Z,28.35
2023-04-15T22:47:32.293Z,28.88
2023-04-15T22:49:59.130Z,29.95
2023-04-15T22:52:31.156Z,28.70
2023-04-15T22:54:59.063Z,27.40
2023-04-15T22:57:27.872Z,28.83
2023-04-15T22:59:57.794Z,28.40
2023-04-15T23:02:27.534Z,34.70
2023-04-15T23:05:00.510Z,34.45
2023-04-15T23:07:30.751Z,29.52
2023-04-15T23:09:58.075Z,29.63
2023-04-15T23:12:27.745Z,28.45
2023-04-15T23:15:00.896Z,26.30
2023-04-15T23:17:40.516Z,30.27
2023-04-15T23:20:07.606Z,28.23
2023-04-15T23:22:47.260Z,31.48
2023-04-15T23:25:14.144Z,26.85
2023-04-15T23:27:40.714Z,28.85
2023-04-15T23:30:08.001Z,29.17
2023-04-15T23:32:34.898Z,30.10
2023-04-15T23:35:01.655Z,31.02
2023-04-15T23:37:31.621Z,29.85
2023-04-15T23:39:58.647Z,30.25
2023-04-15T23:42:25.888Z,31.85
2023-04-15T23:44:52.475Z,35.38
2023-04-15T23:47:19.268Z,36.00
2023-04-15T23:49:45.980Z,33.50
2023-04-15T23:52:12.787Z,31.77
2023-04-15T23:54:40.402Z,31.00
2023-04-15T23:57:07.653Z,38.15
2023-04-15T23:59:34.487Z,34.28
